Molt, MT (59057)

5:26 AM MDT on August 30, 2016 (GMT -0600)
Mountain View | | Change Station

Elev 3980 ft 45.82 °N, 108.84 °W | Updated 4 seconds ago

Clear
Clear
63.9 °F
Feels Like 63.9 °F
N
7.3
Wind Variable Wind from West

Today
High -- | Low -- °F
--% Chance of Precip.
Yesterday
High -- | Low -- °F
Precip. -- in
Pressure 30.03 in
Visibility 10.0 miles
Clouds Clear
Dew Point 45 °F
Humidity 51%
Rainfall 0.00 in
Snow Depth Not available.
6:34 AM 7:55 PM
Waning Crescent, 4% visible
METAR KBIL 301053Z 31007KT 10SM CLR 16/08 A3012 RMK AO2 SLP168 T01610083
Pressure 30.03 in
Visibility 10.0 miles
Clouds Clear
Dew Point 45 °F
Humidity 51%
Rainfall 0.00 in
Snow Depth Not available.
6:34 AM 7:55 PM
Waning Crescent, 4% visible
METAR KBIL 301053Z 31007KT 10SM CLR 16/08 A3012 RMK AO2 SLP168 T01610083

10-Day Weather Forecast

Almanac

Astronomy

Aug. 30, 2016 Rise Set
Actual Time
Civil Twilight
Nautical Twilight
Astronomical Twilight
Moon
Length of Visible Light
Length of Day
Tomorrow will be .
, % of the Moon is Illuminated

Today's Extremes

State Highs State Lows

Community

WunderPhotos

Upload Photos

1,935,804 photos uploaded!

WunderBlog® & News

Nearby

Air Quality

  Air Quality AQ Index Pollutant
Not available.

Snow Depth

Station Depth Elevation

Earthquake Activity

City Distance Mag. Time & Date
Minimum magnitude displayed is 2.5.

Coastal Water Temperatures

Place Temperature

Stations

Nearby Weather Stations

Station Location Temp. Windchill Dew Point Humidity Wind Precip. Elev Updated Type
                   

Watches & Warnings

There are currently no watches in effect.